createdAt,value
2018-04-11T00:00:59.397Z,8.00
2018-04-11T00:01:59.380Z,8.00
2018-04-11T00:02:59.366Z,8.00
2018-04-11T00:03:59.354Z,8.00
2018-04-11T00:04:59.340Z,8.00
2018-04-11T00:05:59.327Z,8.00
2018-04-11T00:06:59.317Z,8.00
2018-04-11T00:07:59.301Z,8.00
2018-04-11T00:08:59.316Z,8.00
2018-04-11T00:09:59.295Z,8.00
2018-04-11T00:10:59.255Z,8.00
2018-04-11T00:11:59.245Z,8.00
2018-04-11T00:12:59.229Z,8.00
2018-04-11T00:13:59.215Z,8.00
2018-04-11T00:14:59.207Z,8.00
2018-04-11T00:15:59.186Z,8.00
2018-04-11T00:16:59.177Z,8.00
2018-04-11T00:17:59.161Z,8.00
2018-04-11T00:18:59.148Z,8.00
2018-04-11T00:19:59.131Z,8.00
2018-04-11T00:20:59.117Z,8.00
2018-04-11T00:21:59.106Z,8.00
2018-04-11T00:22:59.093Z,8.00
2018-04-11T00:23:59.077Z,8.00
2018-04-11T00:24:59.160Z,8.00
2018-04-11T00:25:59.062Z,8.00
2018-04-11T00:26:59.043Z,8.00
2018-04-11T00:27:59.036Z,8.00
2018-04-11T00:28:59.006Z,8.00
2018-04-11T00:29:58.996Z,8.00
2018-04-11T00:30:58.991Z,8.00
2018-04-11T00:31:58.960Z,8.00
2018-04-11T00:32:58.950Z,8.00
2018-04-11T00:33:58.932Z,8.00
2018-04-11T00:34:58.916Z,8.00
2018-04-11T00:35:58.907Z,8.00
2018-04-11T00:36:58.888Z,8.00
2018-04-11T00:37:58.876Z,8.00
2018-04-11T00:38:58.861Z,8.00
2018-04-11T00:39:58.845Z,8.00
2018-04-11T00:40:58.910Z,8.00
2018-04-11T00:41:58.817Z,8.00
2018-04-11T00:42:58.805Z,8.00
2018-04-11T00:43:58.794Z,8.00
2018-04-11T00:44:58.779Z,8.00
2018-04-11T00:45:58.759Z,8.00
2018-04-11T00:46:58.748Z,8.00
2018-04-11T00:47:58.734Z,8.00
2018-04-11T00:48:58.717Z,8.00
2018-04-11T00:49:58.705Z,8.00
2018-04-11T00:50:58.686Z,8.00
2018-04-11T00:51:58.674Z,8.00
2018-04-11T00:52:58.663Z,8.00
2018-04-11T00:53:58.662Z,8.00
2018-04-11T00:54:58.628Z,8.00
2018-04-11T00:55:58.615Z,8.00
2018-04-11T00:56:58.602Z,8.00
2018-04-11T00:57:58.588Z,8.00
2018-04-11T00:58:58.572Z,8.00
2018-04-11T00:59:58.563Z,8.00
2018-04-11T01:00:58.544Z,8.00
2018-04-11T01:01:58.614Z,8.00
2018-04-11T01:02:58.516Z,8.00
2018-04-11T01:03:58.500Z,8.00
2018-04-11T01:04:58.503Z,8.00
2018-04-11T01:05:58.474Z,8.00
2018-04-11T01:06:58.452Z,8.00
2018-04-11T01:07:58.445Z,8.00
2018-04-11T01:08:58.423Z,8.00
2018-04-11T01:09:58.414Z,8.00
2018-04-11T01:10:58.393Z,8.00
2018-04-11T01:11:58.388Z,8.00
2018-04-11T01:12:58.408Z,8.00
2018-04-11T01:13:58.349Z,8.00
2018-04-11T01:14:58.407Z,8.00
2018-04-11T01:15:58.320Z,8.00
2018-04-11T01:16:58.307Z,8.00
2018-04-11T01:17:58.292Z,8.00
2018-04-11T01:18:58.279Z,8.00
2018-04-11T01:19:58.262Z,8.00
2018-04-11T01:20:58.264Z,8.00
2018-04-11T01:21:58.240Z,8.00
2018-04-11T01:22:58.238Z,8.00
2018-04-11T01:23:58.210Z,8.00
2018-04-11T01:24:58.187Z,8.00
2018-04-11T01:25:58.170Z,8.00
2018-04-11T01:26:58.164Z,8.00
2018-04-11T01:27:58.147Z,8.00
2018-04-11T01:28:58.127Z,8.00
2018-04-11T01:29:58.114Z,8.00
2018-04-11T01:30:58.259Z,8.00
2018-04-11T01:31:58.088Z,8.00
2018-04-11T01:32:58.069Z,8.00
2018-04-11T01:33:58.060Z,8.00
2018-04-11T01:34:58.038Z,8.00
2018-04-11T01:35:58.028Z,8.00
2018-04-11T01:36:58.011Z,8.00
2018-04-11T01:37:57.999Z,8.00
2018-04-11T01:38:57.978Z,8.00
2018-04-11T01:39:57.973Z,8.00
2018-04-11T01:40:57.949Z,8.00
2018-04-11T01:41:57.955Z,8.00
2018-04-11T01:42:57.918Z,8.00
2018-04-11T01:43:57.904Z,8.00
2018-04-11T01:44:57.886Z,8.00
2018-04-11T01:45:57.878Z,8.00
2018-04-11T01:46:57.887Z,8.00
2018-04-11T01:47:57.845Z,8.00
2018-04-11T01:48:57.837Z,8.00
2018-04-11T01:49:57.866Z,8.00
2018-04-11T01:50:57.800Z,8.00
2018-04-11T01:51:57.799Z,8.00
2018-04-11T01:52:57.769Z,8.00
2018-04-11T01:53:57.755Z,8.00
2018-04-11T01:54:57.740Z,8.00
2018-04-11T01:55:57.724Z,8.00
2018-04-11T01:56:57.719Z,8.00
2018-04-11T01:57:57.694Z,8.00
2018-04-11T01:58:57.678Z,8.00
2018-04-11T01:59:57.664Z,8.00
2018-04-11T02:00:57.649Z,8.00
2018-04-11T02:01:57.635Z,8.00
2018-04-11T02:02:57.713Z,8.00
2018-04-11T02:03:57.603Z,8.00
2018-04-11T02:04:57.587Z,8.00
2018-04-11T02:05:57.575Z,8.00
2018-04-11T02:06:57.561Z,8.00
2018-04-11T02:07:57.544Z,8.00
2018-04-11T02:08:57.529Z,8.00
2018-04-11T02:09:57.515Z,8.00
2018-04-11T02:10:57.602Z,8.00
2018-04-11T02:11:57.483Z,8.00
2018-04-11T02:12:57.465Z,8.00
2018-04-11T02:13:57.455Z,8.00
2018-04-11T02:14:57.434Z,8.00
2018-04-11T02:15:57.421Z,8.00
2018-04-11T02:16:57.405Z,8.00
2018-04-11T02:17:57.392Z,8.00
2018-04-11T02:18:57.376Z,8.00
2018-04-11T02:19:57.364Z,8.00
2018-04-11T02:20:57.341Z,8.00
2018-04-11T02:21:57.326Z,8.00
2018-04-11T02:22:57.315Z,8.00
2018-04-11T02:23:57.295Z,8.00
2018-04-11T02:24:57.281Z,8.00
2018-04-11T02:25:57.265Z,8.00
2018-04-11T02:26:57.249Z,8.00
2018-04-11T02:27:57.231Z,8.00
2018-04-11T02:28:57.220Z,8.00
2018-04-11T02:29:57.233Z,8.00
2018-04-11T02:30:57.190Z,8.00
2018-04-11T02:31:57.174Z,8.00
2018-04-11T02:32:57.160Z,8.00
2018-04-11T02:33:57.141Z,8.00
2018-04-11T02:34:57.125Z,8.00
2018-04-11T02:35:57.109Z,8.00
2018-04-11T02:36:57.096Z,8.00
2018-04-11T02:37:57.078Z,8.00
2018-04-11T02:38:57.063Z,8.00
2018-04-11T02:39:57.050Z,8.00
2018-04-11T02:40:57.033Z,8.00
2018-04-11T02:41:57.015Z,8.00
2018-04-11T02:42:57.092Z,8.00
2018-04-11T02:43:56.985Z,8.00
2018-04-11T02:44:56.970Z,8.00
2018-04-11T02:45:56.954Z,8.00
2018-04-11T02:46:56.940Z,8.00
2018-04-11T02:47:56.919Z,8.00
2018-04-11T02:48:56.904Z,8.00
2018-04-11T02:49:56.890Z,8.00
2018-04-11T02:50:56.884Z,8.00
2018-04-11T02:51:56.858Z,8.00
2018-04-11T02:52:56.840Z,8.00
2018-04-11T02:53:56.827Z,8.00
2018-04-11T02:54:56.809Z,8.00
2018-04-11T02:55:56.887Z,8.00
2018-04-11T02:56:56.777Z,8.00
2018-04-11T02:57:56.761Z,8.00
2018-04-11T02:58:56.749Z,8.00
2018-04-11T02:59:56.734Z,8.00
2018-04-11T03:00:56.710Z,8.00
2018-04-11T03:01:56.716Z,8.00
2018-04-11T03:02:56.684Z,8.00
2018-04-11T03:03:56.668Z,8.00
2018-04-11T03:04:56.647Z,8.00
2018-04-11T03:05:56.634Z,8.00
2018-04-11T03:06:56.616Z,8.00
2018-04-11T03:07:56.599Z,8.00
2018-04-11T03:08:56.581Z,8.00
2018-04-11T03:09:56.596Z,8.00
2018-04-11T03:10:56.549Z,8.00
2018-04-11T03:11:56.600Z,8.00
2018-04-11T03:12:56.518Z,8.00
2018-04-11T03:13:56.502Z,8.00
2018-04-11T03:14:56.488Z,8.00
2018-04-11T03:15:56.467Z,8.00
2018-04-11T03:16:56.455Z,8.00
2018-04-11T03:17:56.436Z,8.00
2018-04-11T03:18:56.421Z,8.00
2018-04-11T03:19:56.488Z,8.00
2018-04-11T03:20:56.394Z,8.00
2018-04-11T03:21:56.456Z,8.00
2018-04-11T03:22:56.358Z,8.00
2018-04-11T03:23:56.335Z,8.00
2018-04-11T03:24:56.324Z,8.00
2018-04-11T03:25:56.304Z,8.00
2018-04-11T03:26:56.284Z,8.00
2018-04-11T03:27:56.273Z,8.00
2018-04-11T03:28:56.252Z,8.00
2018-04-11T03:29:56.236Z,8.00
2018-04-11T03:30:56.230Z,8.00
2018-04-11T03:31:56.200Z,8.00
2018-04-11T03:32:56.186Z,8.00
2018-04-11T03:33:56.171Z,8.00
2018-04-11T03:34:56.155Z,8.00
2018-04-11T03:35:56.141Z,8.00
2018-04-11T03:36:56.140Z,8.00
2018-04-11T03:37:56.106Z,8.00
2018-04-11T03:38:56.177Z,8.00
2018-04-11T03:39:56.083Z,8.00
2018-04-11T03:40:56.053Z,8.00
2018-04-11T03:41:56.140Z,8.00
2018-04-11T03:42:56.021Z,8.00
2018-04-11T03:43:56.003Z,8.00
2018-04-11T03:44:55.991Z,8.00
2018-04-11T03:45:55.973Z,8.00
2018-04-11T03:46:55.952Z,8.00
2018-04-11T03:47:55.940Z,8.00
2018-04-11T03:48:55.920Z,8.00
2018-04-11T03:49:55.905Z,8.00
2018-04-11T03:50:55.888Z,8.00
2018-04-11T03:51:55.870Z,8.00
2018-04-11T03:52:55.853Z,8.00
2018-04-11T03:53:55.836Z,8.00
2018-04-11T03:54:55.818Z,8.00
2018-04-11T03:55:55.802Z,8.00
2018-04-11T03:56:55.790Z,8.00
2018-04-11T03:57:55.789Z,8.00
2018-04-11T03:58:55.759Z,8.00
2018-04-11T03:59:55.732Z,8.00
2018-04-11T04:00:55.721Z,8.00
2018-04-11T04:01:55.704Z,12.00
2018-04-11T04:02:55.682Z,12.00
2018-04-11T04:03:55.668Z,8.00
2018-04-11T04:04:55.650Z,8.00
2018-04-11T04:05:55.674Z,8.00
2018-04-11T04:06:55.661Z,8.00
2018-04-11T04:07:55.600Z,8.00
2018-04-11T04:08:55.590Z,8.00
2018-04-11T04:09:55.567Z,12.00
2018-04-11T04:10:55.552Z,12.00
2018-04-11T04:11:55.533Z,8.00
2018-04-11T04:12:55.516Z,12.00
2018-04-11T04:13:55.526Z,12.00
2018-04-11T04:14:55.481Z,12.00
2018-04-11T04:15:55.468Z,12.00
2018-04-11T04:16:55.449Z,16.00
2018-04-11T04:17:55.432Z,16.00
2018-04-11T04:18:55.414Z,16.00
2018-04-11T04:19:55.399Z,20.00
2018-04-11T04:20:55.381Z,20.00
2018-04-11T04:21:55.367Z,24.00
2018-04-11T04:22:55.347Z,28.00
2018-04-11T04:23:55.329Z,28.00
2018-04-11T04:24:55.462Z,36.00
2018-04-11T04:25:55.296Z,32.00
2018-04-11T04:26:55.278Z,40.00
2018-04-11T04:27:55.301Z,44.00
2018-04-11T04:28:55.249Z,52.00
2018-04-11T04:29:55.228Z,56.00
2018-04-11T04:30:55.214Z,64.00
2018-04-11T04:31:55.195Z,76.00
2018-04-11T04:32:55.177Z,80.00
2018-04-11T04:33:55.172Z,92.00
2018-04-11T04:34:55.146Z,104.00
2018-04-11T04:35:55.127Z,116.00
2018-04-11T04:36:55.108Z,132.00
2018-04-11T04:37:55.093Z,148.00
2018-04-11T04:38:55.075Z,164.00
2018-04-11T04:39:55.057Z,184.00
2018-04-11T04:40:55.043Z,200.00
2018-04-11T04:41:55.025Z,220.00
2018-04-11T04:42:55.004Z,240.00
2018-04-11T04:43:55.065Z,260.00
2018-04-11T04:44:54.972Z,280.00
2018-04-11T04:45:54.956Z,308.00
2018-04-11T04:46:55.014Z,336.00
2018-04-11T04:47:54.922Z,364.00
2018-04-11T04:48:54.904Z,392.00
2018-04-11T04:49:54.887Z,424.00
2018-04-11T04:50:54.877Z,460.00
2018-04-11T04:51:54.852Z,488.00
2018-04-11T04:52:54.835Z,524.00
2018-04-11T04:53:54.821Z,556.00
2018-04-11T04:54:54.826Z,584.00
2018-04-11T04:55:54.783Z,620.00
2018-04-11T04:56:54.765Z,648.00
2018-04-11T04:57:54.751Z,684.00
2018-04-11T04:58:54.738Z,724.00
2018-04-11T04:59:54.715Z,764.00
2018-04-11T05:00:54.701Z,804.00
2018-04-11T05:01:54.680Z,860.00
2018-04-11T05:02:54.663Z,916.00
2018-04-11T05:03:54.646Z,972.00
2018-04-11T05:04:54.631Z,1032.00
2018-04-11T05:05:54.619Z,1096.00
2018-04-11T05:06:54.594Z,1160.00
2018-04-11T05:07:54.579Z,1224.00
2018-04-11T05:08:54.564Z,1288.00
2018-04-11T05:09:54.541Z,1344.00
2018-04-11T05:10:54.538Z,1392.00
2018-04-11T05:11:54.509Z,1428.00
2018-04-11T05:12:54.490Z,1456.00
2018-04-11T05:13:54.487Z,1476.00
2018-04-11T05:14:54.459Z,1488.00
2018-04-11T05:15:54.449Z,1492.00
2018-04-11T05:16:54.422Z,1512.00
2018-04-11T05:17:54.415Z,1548.00
2018-04-11T05:18:54.396Z,1600.00
2018-04-11T05:19:54.368Z,1680.00
2018-04-11T05:20:54.369Z,1784.00
2018-04-11T05:21:54.340Z,1908.00
2018-04-11T05:22:54.317Z,2052.00
2018-04-11T05:23:54.314Z,2228.00
2018-04-11T05:24:54.280Z,2416.00
2018-04-11T05:25:54.267Z,2604.00
2018-04-11T05:26:54.247Z,2788.00
2018-04-11T05:27:54.230Z,2956.00
2018-04-11T05:28:54.212Z,3132.00
2018-04-11T05:29:54.202Z,3324.00
2018-04-11T05:30:54.176Z,3512.00
2018-04-11T05:31:54.158Z,3676.00
2018-04-11T05:32:54.204Z,3844.00
2018-04-11T05:33:54.126Z,4028.00
2018-04-11T05:34:54.106Z,4188.00
2018-04-11T05:35:54.098Z,4316.00
2018-04-11T05:36:54.081Z,4420.00
2018-04-11T05:37:54.060Z,4476.00
2018-04-11T05:38:54.061Z,4480.00
2018-04-11T05:39:54.031Z,4444.00
2018-04-11T05:40:54.007Z,4392.00
2018-04-11T05:41:53.990Z,4384.00
2018-04-11T05:42:53.970Z,4444.00
2018-04-11T05:43:53.969Z,4540.00
2018-04-11T05:44:53.936Z,4636.00
2018-04-11T05:45:53.918Z,4724.00
2018-04-11T05:46:53.904Z,4908.00
2018-04-11T05:47:53.892Z,5184.00
2018-04-11T05:48:53.871Z,5520.00
2018-04-11T05:49:53.854Z,5800.00
2018-04-11T05:50:53.832Z,5956.00
2018-04-11T05:51:53.814Z,6040.00
2018-04-11T05:52:53.805Z,6088.00
2018-04-11T05:53:53.784Z,6104.00
2018-04-11T05:54:53.767Z,6280.00
2018-04-11T05:55:53.752Z,6820.00
2018-04-11T05:56:53.735Z,7616.00
2018-04-11T05:57:53.720Z,8004.00
2018-04-11T05:58:53.702Z,8372.00
2018-04-11T05:59:53.697Z,7528.00
2018-04-11T06:00:53.678Z,7268.00
2018-04-11T06:01:53.654Z,7528.00
2018-04-11T06:02:53.644Z,8200.00
2018-04-11T06:03:53.621Z,8692.00
2018-04-11T06:04:53.605Z,8576.00
2018-04-11T06:05:53.589Z,9312.00
2018-04-11T06:06:53.570Z,9360.00
2018-04-11T06:07:53.554Z,11344.00
2018-04-11T06:08:53.543Z,10564.00
2018-04-11T06:09:53.522Z,12060.00
2018-04-11T06:10:53.506Z,12076.00
2018-04-11T06:11:53.498Z,15808.00
2018-04-11T06:12:53.474Z,15712.00
2018-04-11T06:13:53.460Z,15264.00
2018-04-11T06:14:53.443Z,16128.00
2018-04-11T06:15:53.494Z,18880.00
2018-04-11T06:16:53.429Z,19616.00
2018-04-11T06:17:53.398Z,18976.00
2018-04-11T06:18:53.395Z,19232.00
2018-04-11T06:19:53.365Z,20032.00
2018-04-11T06:20:53.356Z,24160.00
2018-04-11T06:21:53.340Z,22560.00
2018-04-11T06:22:53.380Z,19456.00
2018-04-11T06:23:53.308Z,25184.00
2018-04-11T06:24:53.292Z,21696.00
2018-04-11T06:25:53.279Z,18816.00
2018-04-11T06:26:53.262Z,20064.00
2018-04-11T06:27:53.248Z,27520.00
2018-04-11T06:28:53.234Z,27584.00
2018-04-11T06:29:53.218Z,21632.00
2018-04-11T06:30:53.208Z,22304.00
2018-04-11T06:31:53.206Z,24736.00
2018-04-11T06:32:53.179Z,19264.00
2018-04-11T06:33:53.175Z,23200.00
2018-04-11T06:34:53.236Z,20992.00
2018-04-11T06:35:53.141Z,20512.00
2018-04-11T06:36:53.128Z,18688.00
2018-04-11T06:37:53.112Z,12616.00
2018-04-11T06:38:53.144Z,11012.00
2018-04-11T06:39:53.110Z,10068.00
2018-04-11T06:40:53.072Z,10000.00
2018-04-11T06:41:53.064Z,9968.00
2018-04-11T06:42:53.118Z,10172.00
2018-04-11T06:43:53.037Z,10260.00
2018-04-11T06:44:53.023Z,10032.00
2018-04-11T06:45:53.013Z,10340.00
2018-04-11T06:46:53.015Z,10504.00
2018-04-11T06:47:52.987Z,10576.00
2018-04-11T06:48:52.971Z,10556.00
2018-04-11T06:49:52.957Z,10540.00
2018-04-11T06:50:52.941Z,10516.00
2018-04-11T06:51:52.929Z,10408.00
2018-04-11T06:52:52.917Z,10436.00
2018-04-11T06:53:52.908Z,10224.00
2018-04-11T06:54:52.886Z,9820.00
2018-04-11T06:55:52.870Z,9628.00
2018-04-11T06:56:52.861Z,9620.00
2018-04-11T06:57:52.851Z,9816.00
2018-04-11T06:58:52.892Z,10132.00
2018-04-11T06:59:52.814Z,10332.00
2018-04-11T07:00:52.808Z,10500.00
2018-04-11T07:01:52.796Z,10604.00
2018-04-11T07:02:52.777Z,10536.00
2018-04-11T07:03:52.759Z,10424.00
2018-04-11T07:04:52.767Z,10648.00
2018-04-11T07:05:52.740Z,10968.00
2018-04-11T07:06:52.716Z,11192.00
2018-04-11T07:07:52.704Z,11328.00
2018-04-11T07:08:52.687Z,11588.00
2018-04-11T07:09:52.677Z,11784.00
2018-04-11T07:10:52.657Z,12088.00
2018-04-11T07:11:52.642Z,12352.00
2018-04-11T07:12:52.628Z,12484.00
2018-04-11T07:13:52.617Z,13084.00
2018-04-11T07:14:52.749Z,13672.00
2018-04-11T07:15:52.588Z,14760.00
2018-04-11T07:16:52.575Z,16364.00
2018-04-11T07:17:52.606Z,22144.00
2018-04-11T07:18:52.561Z,17696.00
2018-04-11T07:19:52.545Z,23104.00
2018-04-11T07:20:52.511Z,25248.00
2018-04-11T07:21:52.496Z,19840.00
2018-04-11T07:22:52.481Z,24928.00
2018-04-11T07:23:52.468Z,26976.00
2018-04-11T07:24:52.463Z,27232.00
2018-04-11T07:25:52.442Z,17792.00
2018-04-11T07:26:52.427Z,20800.00
2018-04-11T07:27:52.411Z,23008.00
2018-04-11T07:28:52.401Z,24288.00
2018-04-11T07:29:52.391Z,20320.00
2018-04-11T07:30:52.371Z,25632.00
2018-04-11T07:31:52.355Z,23712.00
2018-04-11T07:32:52.342Z,38400.00
2018-04-11T07:33:52.343Z,37216.00
2018-04-11T07:34:52.312Z,43776.00
2018-04-11T07:35:52.327Z,36192.00
2018-04-11T07:36:52.289Z,43008.00
2018-04-11T07:37:52.275Z,32192.00
2018-04-11T07:38:52.274Z,30624.00
2018-04-11T07:39:52.250Z,20384.00
2018-04-11T07:40:52.235Z,19808.00
2018-04-11T07:41:52.290Z,23424.00
2018-04-11T07:42:52.209Z,29856.00
2018-04-11T07:43:52.198Z,21632.00
2018-04-11T07:44:52.186Z,18656.00
2018-04-11T07:45:52.171Z,20128.00
2018-04-11T07:46:52.160Z,23360.00
2018-04-11T07:47:52.150Z,25760.00
2018-04-11T07:48:52.138Z,28512.00
2018-04-11T07:49:52.123Z,28544.00
2018-04-11T07:50:52.111Z,27072.00
2018-04-11T07:51:52.104Z,26176.00
2018-04-11T07:52:52.090Z,29440.00
2018-04-11T07:53:52.095Z,26400.00
2018-04-11T07:54:52.067Z,28160.00
2018-04-11T07:55:52.058Z,38848.00
2018-04-11T07:56:52.053Z,28576.00
2018-04-11T07:57:52.043Z,19168.00
2018-04-11T07:58:52.023Z,16096.00
2018-04-11T07:59:52.047Z,17952.00
2018-04-11T08:00:52.005Z,32800.00
2018-04-11T08:01:51.990Z,26336.00
2018-04-11T08:02:51.983Z,36320.00
2018-04-11T08:03:51.970Z,22720.00
2018-04-11T08:04:51.959Z,24160.00
2018-04-11T08:05:51.947Z,48288.00
2018-04-11T08:06:51.938Z,50624.00
2018-04-11T08:07:51.927Z,55648.00
2018-04-11T08:08:51.916Z,43008.00
2018-04-11T08:09:51.916Z,40864.00
2018-04-11T08:10:51.939Z,46848.00
2018-04-11T08:11:51.887Z,50816.00
2018-04-11T08:12:51.877Z,35296.00
2018-04-11T08:13:51.872Z,46432.00
2018-04-11T08:14:51.856Z,52608.00
2018-04-11T08:15:51.846Z,31072.00
2018-04-11T08:16:51.835Z,39616.00
2018-04-11T08:17:51.828Z,27584.00
2018-04-11T08:18:51.829Z,22656.00
2018-04-11T08:19:51.805Z,24000.00
2018-04-11T08:20:51.807Z,37824.00
2018-04-11T08:21:51.784Z,26624.00
2018-04-11T08:22:51.776Z,29536.00
2018-04-11T08:23:51.772Z,36544.00
2018-04-11T08:24:51.759Z,42656.00
2018-04-11T08:25:51.753Z,53440.00
2018-04-11T08:26:51.740Z,53600.00
2018-04-11T08:27:51.739Z,48288.00
2018-04-11T08:28:51.735Z,50048.00
2018-04-11T08:29:51.719Z,42112.00
2018-04-11T08:30:51.709Z,40416.00
2018-04-11T08:31:51.751Z,33792.00
2018-04-11T08:32:51.693Z,38976.00
2018-04-11T08:33:51.685Z,34208.00
2018-04-11T08:34:51.703Z,40544.00
2018-04-11T08:35:51.681Z,40128.00
2018-04-11T08:36:51.664Z,35584.00
2018-04-11T08:37:51.659Z,36832.00
2018-04-11T08:38:51.655Z,28160.00
2018-04-11T08:39:51.643Z,26176.00
2018-04-11T08:40:51.634Z,31616.00
2018-04-11T08:41:51.635Z,32608.00
2018-04-11T08:42:51.640Z,43872.00
2018-04-11T08:43:51.612Z,49472.00
2018-04-11T08:44:51.644Z,35552.00
2018-04-11T08:45:51.608Z,41600.00
2018-04-11T08:46:51.588Z,47008.00
2018-04-11T08:47:51.586Z,45088.00
2018-04-11T08:48:51.575Z,50496.00
2018-04-11T08:49:51.564Z,35904.00
2018-04-11T08:50:51.558Z,53408.00
2018-04-11T08:51:51.552Z,49280.00
2018-04-11T08:52:51.578Z,45216.00
2018-04-11T08:53:51.536Z,22208.00
2018-04-11T08:54:51.535Z,30912.00
2018-04-11T08:55:51.520Z,25664.00
2018-04-11T08:56:51.512Z,22304.00
2018-04-11T08:57:51.512Z,33344.00
2018-04-11T08:58:51.496Z,29216.00
2018-04-11T08:59:51.492Z,39072.00
2018-04-11T09:00:51.533Z,36736.00
2018-04-11T09:01:51.476Z,26944.00
2018-04-11T09:02:51.480Z,35776.00
2018-04-11T09:03:51.461Z,50272.00
2018-04-11T09:04:51.455Z,58784.00
2018-04-11T09:05:51.446Z,48800.00
2018-04-11T09:06:51.440Z,48864.00
2018-04-11T09:07:51.430Z,67264.00
2018-04-11T09:08:51.424Z,36352.00
2018-04-11T09:09:51.419Z,50016.00
2018-04-11T09:10:51.411Z,59328.00
2018-04-11T09:11:51.405Z,60512.00
2018-04-11T09:12:51.398Z,70976.00
2018-04-11T09:13:51.576Z,56000.00
2018-04-11T09:14:51.382Z,66560.00
2018-04-11T09:15:51.383Z,67456.00
2018-04-11T09:16:51.433Z,71008.00
2018-04-11T09:17:51.368Z,70656.00
2018-04-11T09:18:51.359Z,70144.00
2018-04-11T09:19:51.380Z,63840.00
2018-04-11T09:20:51.372Z,70400.00
2018-04-11T09:21:51.350Z,62720.00
2018-04-11T09:22:51.348Z,74976.00
2018-04-11T09:23:51.345Z,64736.00
2018-04-11T09:24:51.331Z,73216.00
2018-04-11T09:25:51.328Z,76800.00
2018-04-11T09:26:51.323Z,76480.00
2018-04-11T09:27:51.318Z,75456.00
2018-04-11T09:28:51.318Z,48736.00
2018-04-11T09:29:51.310Z,47296.00
2018-04-11T09:30:51.308Z,41824.00
2018-04-11T09:31:51.383Z,34528.00
2018-04-11T09:32:51.299Z,35328.00
2018-04-11T09:33:51.296Z,75392.00
2018-04-11T09:34:51.304Z,84224.00
2018-04-11T09:35:51.306Z,85280.00
2018-04-11T09:36:51.282Z,83584.00
2018-04-11T09:37:51.278Z,81920.00
2018-04-11T09:38:51.281Z,62560.00
2018-04-11T09:39:51.272Z,76992.00
2018-04-11T09:40:51.267Z,77856.00
2018-04-11T09:41:51.300Z,79744.00
2018-04-11T09:42:51.263Z,78944.00
2018-04-11T09:43:51.257Z,80288.00
2018-04-11T09:44:51.272Z,79648.00
2018-04-11T09:45:51.253Z,80576.00
2018-04-11T09:46:51.248Z,78560.00
2018-04-11T09:47:51.267Z,78656.00
2018-04-11T09:48:51.248Z,76736.00
2018-04-11T09:49:51.254Z,70848.00
2018-04-11T09:50:51.238Z,71264.00
2018-04-11T09:51:51.255Z,72448.00
2018-04-11T09:52:51.242Z,76256.00
2018-04-11T09:53:51.235Z,79392.00
2018-04-11T09:54:51.237Z,74624.00
2018-04-11T09:55:51.236Z,74528.00
2018-04-11T09:56:51.230Z,79328.00
2018-04-11T09:57:51.230Z,80544.00
2018-04-11T09:58:51.231Z,80384.00
2018-04-11T09:59:51.228Z,78176.00
2018-04-11T10:00:51.336Z,77088.00
2018-04-11T10:01:51.227Z,74688.00
2018-04-11T10:02:51.233Z,74592.00
2018-04-11T10:03:51.224Z,68480.00
2018-04-11T10:04:51.225Z,73024.00
2018-04-11T10:05:51.225Z,72512.00
2018-04-11T10:06:51.282Z,75872.00
2018-04-11T10:07:51.224Z,82816.00
2018-04-11T10:08:51.229Z,87008.00
2018-04-11T10:09:51.230Z,79552.00
2018-04-11T10:10:51.287Z,73920.00
2018-04-11T10:11:51.222Z,75200.00
2018-04-11T10:12:51.227Z,76832.00
2018-04-11T10:13:51.221Z,85408.00
2018-04-11T10:14:51.230Z,82944.00
2018-04-11T10:15:51.223Z,82368.00
2018-04-11T10:16:51.217Z,86080.00
2018-04-11T10:17:51.222Z,80288.00
2018-04-11T10:18:51.218Z,83232.00
2018-04-11T10:19:51.217Z,81728.00
2018-04-11T10:20:51.216Z,80416.00
2018-04-11T10:21:51.216Z,79744.00
2018-04-11T10:22:51.216Z,76576.00
2018-04-11T10:23:51.229Z,80288.00
2018-04-11T10:24:51.244Z,83392.00
2018-04-11T10:25:51.217Z,83904.00
2018-04-11T10:26:51.219Z,75808.00
2018-04-11T10:27:51.216Z,79648.00
2018-04-11T10:28:51.268Z,74144.00
2018-04-11T10:29:51.216Z,79840.00
2018-04-11T10:30:51.216Z,80640.00
2018-04-11T10:31:51.227Z,78624.00
2018-04-11T10:32:51.227Z,71904.00
2018-04-11T10:33:51.217Z,57408.00
2018-04-11T10:34:51.219Z,68576.00
2018-04-11T10:35:51.229Z,63232.00
2018-04-11T10:36:51.221Z,39328.00
2018-04-11T10:37:51.223Z,80192.00
2018-04-11T10:38:51.226Z,61152.00
2018-04-11T10:39:51.224Z,34560.00
2018-04-11T10:40:51.220Z,25344.00
2018-04-11T10:41:51.368Z,19264.00
2018-04-11T10:42:51.214Z,24736.00
2018-04-11T10:43:51.211Z,16632.00
2018-04-11T10:44:51.216Z,17408.00
2018-04-11T10:45:51.210Z,25952.00
2018-04-11T10:46:51.213Z,12676.00
2018-04-11T10:47:51.208Z,12412.00
2018-04-11T10:48:51.202Z,15224.00
2018-04-11T10:49:51.199Z,23872.00
2018-04-11T10:50:51.194Z,16112.00
2018-04-11T10:51:51.187Z,12764.00
2018-04-11T10:52:51.243Z,11840.00
2018-04-11T10:53:51.178Z,12632.00
2018-04-11T10:54:51.242Z,14032.00
2018-04-11T10:55:51.180Z,11488.00
2018-04-11T10:56:51.162Z,9072.00
2018-04-11T10:57:51.157Z,12512.00
2018-04-11T10:58:51.149Z,20256.00
2018-04-11T10:59:51.155Z,68160.00
2018-04-11T11:00:51.194Z,21824.00
2018-04-11T11:01:51.139Z,18400.00
2018-04-11T11:02:51.126Z,16840.00
2018-04-11T11:03:51.121Z,15816.00
2018-04-11T11:04:51.118Z,10576.00
2018-04-11T11:05:51.127Z,9704.00
2018-04-11T11:06:51.106Z,9184.00
2018-04-11T11:07:51.130Z,8968.00
2018-04-11T11:08:51.086Z,9812.00
2018-04-11T11:09:51.078Z,10468.00
2018-04-11T11:10:51.176Z,11928.00
2018-04-11T11:11:51.067Z,26176.00
2018-04-11T11:12:51.053Z,9292.00
2018-04-11T11:13:51.053Z,11320.00
2018-04-11T11:14:51.046Z,11852.00
2018-04-11T11:15:51.032Z,9252.00
2018-04-11T11:16:51.029Z,9500.00
2018-04-11T11:17:51.015Z,13160.00
2018-04-11T11:18:51.004Z,46784.00
2018-04-11T11:19:51.004Z,67008.00
2018-04-11T11:20:50.993Z,70624.00
2018-04-11T11:21:50.980Z,69568.00
2018-04-11T11:22:50.991Z,24608.00
2018-04-11T11:23:50.964Z,62976.00
2018-04-11T11:24:50.964Z,63232.00
2018-04-11T11:25:50.949Z,31744.00
2018-04-11T11:26:50.954Z,61536.00
2018-04-11T11:27:50.939Z,49408.00
2018-04-11T11:28:50.928Z,41504.00
2018-04-11T11:29:50.927Z,74368.00
2018-04-11T11:30:50.923Z,47872.00
2018-04-11T11:31:50.984Z,41152.00
2018-04-11T11:32:50.904Z,42400.00
2018-04-11T11:33:50.898Z,36640.00
2018-04-11T11:34:50.895Z,22976.00
2018-04-11T11:35:50.885Z,21056.00
2018-04-11T11:36:50.879Z,24288.00
2018-04-11T11:37:50.886Z,26624.00
2018-04-11T11:38:50.867Z,23232.00
2018-04-11T11:39:50.864Z,22912.00
2018-04-11T11:40:50.856Z,22208.00
2018-04-11T11:41:50.848Z,23168.00
2018-04-11T11:42:50.844Z,19104.00
2018-04-11T11:43:50.836Z,19360.00
2018-04-11T11:44:50.925Z,21056.00
2018-04-11T11:45:50.840Z,17120.00
2018-04-11T11:46:50.813Z,16508.00
2018-04-11T11:47:50.809Z,15244.00
2018-04-11T11:48:50.814Z,13124.00
2018-04-11T11:49:50.797Z,11588.00
2018-04-11T11:50:50.783Z,10340.00
2018-04-11T11:51:50.774Z,9448.00
2018-04-11T11:52:50.774Z,8472.00
2018-04-11T11:53:50.766Z,7160.00
2018-04-11T11:54:50.765Z,6416.00
2018-04-11T11:55:50.740Z,6092.00
2018-04-11T11:56:50.732Z,5884.00
2018-04-11T11:57:50.819Z,6108.00
2018-04-11T11:58:50.713Z,6716.00
2018-04-11T11:59:50.709Z,7924.00
2018-04-11T12:00:50.708Z,9772.00
2018-04-11T12:01:50.686Z,11568.00
2018-04-11T12:02:50.704Z,12596.00
2018-04-11T12:03:50.672Z,14116.00
2018-04-11T12:04:50.659Z,16708.00
2018-04-11T12:05:50.657Z,20064.00
2018-04-11T12:06:50.640Z,23136.00
2018-04-11T12:07:50.640Z,25056.00
2018-04-11T12:08:50.619Z,23168.00
2018-04-11T12:09:50.611Z,17952.00
2018-04-11T12:10:50.599Z,16220.00
2018-04-11T12:11:50.653Z,14520.00
2018-04-11T12:12:50.583Z,13996.00
2018-04-11T12:13:50.577Z,13932.00
2018-04-11T12:14:50.562Z,13396.00
2018-04-11T12:15:50.548Z,12272.00
2018-04-11T12:16:50.539Z,11364.00
2018-04-11T12:17:50.540Z,10772.00
2018-04-11T12:18:50.521Z,10488.00
2018-04-11T12:19:50.515Z,10228.00
2018-04-11T12:20:50.503Z,9208.00